Time;durP1;ratioP1;P1;durP2;ratioP2;P2;SDS_P1;SDS_P2;PMS_P1;PMS_P2;Temp;Humidity;BMP_temperature;BMP_pressure;BME280_temperature;BME280_humidity;BME280_pressure;Samples;Min_cycle;Max_cycle;Signal;HPM_P1;HPM_P2
2022/07/12 00:01:45;;;;;;;10.50;4.07;;;;;;;;;;5011518;28;20091;-74
2022/07/12 00:04:10;;;;;;;8.18;4.78;;;;;;;;;;5011886;28;20049;-74
2022/07/12 00:06:36;;;;;;;7.43;4.80;;;;;;;;;;5013050;28;20073;-74
2022/07/12 00:09:01;;;;;;;7.25;4.93;;;;;;;;;;5011284;28;20390;-76
2022/07/12 00:11:27;;;;;;;15.30;8.73;;;;;;;;;;5012744;28;20381;-72
2022/07/12 00:13:52;;;;;;;16.90;9.20;;;;;;;;;;5012852;28;20041;-73
2022/07/12 00:16:18;;;;;;;17.67;11.02;;;;;;;;;;5012822;28;20022;-73
2022/07/12 00:18:43;;;;;;;18.65;12.07;;;;;;;;;;5011330;28;20099;-73
2022/07/12 00:21:09;;;;;;;24.20;12.43;;;;;;;;;;5011080;28;20048;-73
2022/07/12 00:23:35;;;;;;;21.45;11.65;;;;;;;;;;5012024;28;20470;-73
2022/07/12 00:26:04;;;;;;;23.77;12.75;;;;;;;;;;5011133;28;20049;-73
2022/07/12 00:28:30;;;;;;;20.33;12.00;;;;;;;;;;5013221;28;20486;-73
2022/07/12 00:30:56;;;;;;;20.15;11.93;;;;;;;;;;5028486;28;20153;-73
2022/07/12 00:33:21;;;;;;;23.98;13.32;;;;;;;;;;5028197;28;20463;-74
2022/07/12 00:35:47;;;;;;;21.38;13.20;;;;;;;;;;5012628;28;20037;-74
2022/07/12 00:38:12;;;;;;;28.08;12.35;;;;;;;;;;5027107;28;20041;-73
2022/07/12 00:40:39;;;;;;;23.15;11.50;;;;;;;;;;5010875;28;20053;-74
2022/07/12 00:43:04;;;;;;;19.20;10.73;;;;;;;;;;5012225;28;20029;-74
2022/07/12 00:45:30;;;;;;;18.50;9.68;;;;;;;;;;5027507;28;20439;-74
2022/07/12 00:47:55;;;;;;;20.63;10.40;;;;;;;;;;5012138;28;20190;-74
2022/07/12 00:50:22;;;;;;;14.57;9.30;;;;;;;;;;5012056;28;20038;-73
2022/07/12 00:52:49;;;;;;;14.63;8.02;;;;;;;;;;5010755;28;20393;-73
2022/07/12 00:55:17;;;;;;;12.85;7.15;;;;;;;;;;5010553;28;20054;-73
2022/07/12 00:57:43;;;;;;;15.52;8.13;;;;;;;;;;5010615;28;20548;-73
2022/07/12 01:00:11;;;;;;;17.27;7.30;;;;;;;;;;5011845;28;20030;-73
2022/07/12 01:02:37;;;;;;;13.00;6.90;;;;;;;;;;5010676;28;20044;-73
2022/07/12 01:05:05;;;;;;;14.00;6.25;;;;;;;;;;5010240;28;20084;-73
2022/07/12 01:07:31;;;;;;;11.13;6.07;;;;;;;;;;5010645;28;20076;-72
2022/07/12 01:09:58;;;;;;;13.35;6.60;;;;;;;;;;5011954;28;20061;-73
2022/07/12 01:12:24;;;;;;;8.13;5.60;;;;;;;;;;5011613;28;20057;-73
2022/07/12 01:14:51;;;;;;;11.52;5.93;;;;;;;;;;4994400;28;20056;-74
2022/07/12 01:17:21;;;;;;;10.82;6.13;;;;;;;;;;5010156;28;20049;-73
2022/07/12 01:19:48;;;;;;;10.30;6.95;;;;;;;;;;5010546;28;20478;-73
2022/07/12 01:22:16;;;;;;;15.32;5.57;;;;;;;;;;5009855;28;20474;-73
2022/07/12 01:24:42;;;;;;;7.47;5.18;;;;;;;;;;5011558;28;20158;-73
2022/07/12 01:27:08;;;;;;;6.10;4.85;;;;;;;;;;5011158;28;20129;-73
2022/07/12 01:29:34;;;;;;;8.60;5.03;;;;;;;;;;5010052;28;20073;-73
2022/07/12 01:34:45;;;;;;;7.32;4.40;;;;;;;;;;5010912;28;20037;-73
2022/07/12 01:37:14;;;;;;;5.40;4.60;;;;;;;;;;5011235;28;20033;-73
2022/07/12 01:39:39;;;;;;;6.18;4.22;;;;;;;;;;5009947;28;20489;-73
2022/07/12 01:42:05;;;;;;;5.97;5.00;;;;;;;;;;5011120;28;20033;-73
2022/07/12 01:44:31;;;;;;;9.60;4.32;;;;;;;;;;5010218;28;20021;-73
2022/07/12 01:46:58;;;;;;;10.15;5.03;;;;;;;;;;5009800;28;20038;-73
2022/07/12 01:49:23;;;;;;;4.28;3.88;;;;;;;;;;5009579;28;20115;-73
2022/07/12 01:51:49;;;;;;;8.25;5.68;;;;;;;;;;5009595;28;20565;-74
2022/07/12 01:54:15;;;;;;;6.40;3.83;;;;;;;;;;5009262;28;20022;-74
2022/07/12 01:56:41;;;;;;;9.68;4.90;;;;;;;;;;5010910;28;20029;-73
2022/07/12 01:59:07;;;;;;;8.30;4.10;;;;;;;;;;5009226;28;20040;-74
2022/07/12 02:01:33;;;;;;;5.22;4.20;;;;;;;;;;5025979;28;20025;-74
2022/07/12 02:04:04;;;;;;;10.30;4.25;;;;;;;;;;5010972;28;20061;-74
2022/07/12 02:06:30;;;;;;;8.52;4.72;;;;;;;;;;5009515;28;20124;-74
2022/07/12 02:08:56;;;;;;;6.57;4.20;;;;;;;;;;5025642;28;20133;-74
2022/07/12 02:11:21;;;;;;;5.63;3.60;;;;;;;;;;5009069;28;20026;-74
2022/07/12 02:13:47;;;;;;;5.57;4.22;;;;;;;;;;5010756;28;20022;-73
2022/07/12 02:16:12;;;;;;;8.27;3.83;;;;;;;;;;5025293;28;20085;-74
2022/07/12 02:18:38;;;;;;;6.90;3.97;;;;;;;;;;5009073;28;20136;-73
2022/07/12 02:21:04;;;;;;;5.22;4.10;;;;;;;;;;5010205;28;20022;-74
2022/07/12 02:23:29;;;;;;;5.40;4.10;;;;;;;;;;5010067;28;20072;-73
2022/07/12 02:25:55;;;;;;;8.25;3.88;;;;;;;;;;5008828;28;20395;-74
2022/07/12 02:28:20;;;;;;;6.53;3.70;;;;;;;;;;5009984;28;20030;-74
2022/07/12 02:30:46;;;;;;;4.22;3.80;;;;;;;;;;5010644;28;20038;-73
2022/07/12 02:33:15;;;;;;;4.90;3.78;;;;;;;;;;5008795;28;20508;-74
2022/07/12 02:35:41;;;;;;;4.57;3.53;;;;;;;;;;5009038;28;20037;-74
2022/07/12 02:38:06;;;;;;;7.80;3.65;;;;;;;;;;5008504;28;20033;-74
2022/07/12 02:43:16;;;;;;;4.68;3.83;;;;;;;;;;5012791;28;20378;-72
2022/07/12 02:45:41;;;;;;;6.97;4.00;;;;;;;;;;5013718;28;20059;-73
2022/07/12 02:48:07;;;;;;;6.80;3.83;;;;;;;;;;5015087;28;20099;-73
2022/07/12 02:50:32;;;;;;;5.68;3.65;;;;;;;;;;5011119;28;20034;-73
2022/07/12 02:52:58;;;;;;;6.43;4.45;;;;;;;;;;5010107;28;20101;-72
2022/07/12 02:55:23;;;;;;;4.95;3.75;;;;;;;;;;5012707;28;20037;-73
2022/07/12 02:57:49;;;;;;;8.13;4.05;;;;;;;;;;5012456;28;20459;-72
2022/07/12 03:00:14;;;;;;;6.50;4.22;;;;;;;;;;5009899;28;20466;-72
2022/07/12 03:02:40;;;;;;;12.90;4.38;;;;;;;;;;5008772;28;20436;-73
2022/07/12 03:05:06;;;;;;;5.88;3.70;;;;;;;;;;5010288;28;20539;-74
2022/07/12 03:07:31;;;;;;;6.85;3.92;;;;;;;;;;5008591;28;20398;-73
2022/07/12 03:09:57;;;;;;;9.75;3.97;;;;;;;;;;5009857;28;20030;-73
2022/07/12 03:12:22;;;;;;;6.68;3.80;;;;;;;;;;5009508;28;20052;-73
2022/07/12 03:14:48;;;;;;;7.13;3.88;;;;;;;;;;5008475;28;20038;-73
2022/07/12 03:17:13;;;;;;;6.10;3.97;;;;;;;;;;5007926;28;20026;-73
2022/07/12 03:19:39;;;;;;;5.45;4.15;;;;;;;;;;5008489;28;20026;-74
2022/07/12 03:22:04;;;;;;;7.15;3.90;;;;;;;;;;5008346;28;20572;-74
2022/07/12 03:24:30;;;;;;;6.47;3.80;;;;;;;;;;5009671;28;20021;-74
2022/07/12 03:26:55;;;;;;;4.35;3.95;;;;;;;;;;5008320;28;20495;-74
2022/07/12 03:29:21;;;;;;;6.00;4.03;;;;;;;;;;5024384;28;20105;-74
2022/07/12 03:31:49;;;;;;;4.35;3.42;;;;;;;;;;5008526;28;20038;-74
2022/07/12 03:34:14;;;;;;;8.25;3.60;;;;;;;;;;5024472;28;20036;-74
2022/07/12 03:36:39;;;;;;;5.53;4.18;;;;;;;;;;5025090;28;20036;-74
2022/07/12 03:39:06;;;;;;;5.53;4.85;;;;;;;;;;5009524;28;20101;-73
2022/07/12 03:41:32;;;;;;;12.05;5.55;;;;;;;;;;5007968;28;20281;-73
2022/07/12 03:43:57;;;;;;;4.30;3.90;;;;;;;;;;5024358;28;20038;-73
2022/07/12 03:46:22;;;;;;;6.80;3.65;;;;;;;;;;5009330;28;20433;-73
2022/07/12 03:48:48;;;;;;;5.70;3.92;;;;;;;;;;5009278;28;20033;-72
2022/07/12 03:51:13;;;;;;;4.10;3.70;;;;;;;;;;5007951;28;20400;-73
2022/07/12 03:53:39;;;;;;;6.85;3.97;;;;;;;;;;5009586;28;20477;-73
2022/07/12 03:56:05;;;;;;;5.35;4.07;;;;;;;;;;5024921;28;20065;-73
2022/07/12 03:58:30;;;;;;;5.35;4.10;;;;;;;;;;5010386;28;20141;-73
2022/07/12 04:00:56;;;;;;;6.07;4.05;;;;;;;;;;5013468;28;20033;-73
2022/07/12 04:03:21;;;;;;;5.38;4.40;;;;;;;;;;5028350;28;20037;-73
2022/07/12 04:05:47;;;;;;;5.65;4.13;;;;;;;;;;5011554;28;20030;-73
2022/07/12 04:08:12;;;;;;;5.30;4.68;;;;;;;;;;5012904;28;20079;-74
2022/07/12 04:10:38;;;;;;;5.05;4.30;;;;;;;;;;5028007;28;20029;-74
2022/07/12 04:13:04;;;;;;;6.13;3.65;;;;;;;;;;5028063;28;20045;-74
2022/07/12 04:15:29;;;;;;;8.55;4.80;;;;;;;;;;5027605;28;20041;-74
2022/07/12 04:17:55;;;;;;;7.28;3.60;;;;;;;;;;5012830;28;20030;-74
2022/07/12 04:20:20;;;;;;;5.05;4.10;;;;;;;;;;5027599;28;20022;-74
2022/07/12 04:22:45;;;;;;;5.40;4.22;;;;;;;;;;5012460;28;20434;-74
2022/07/12 04:25:11;;;;;;;7.00;3.65;;;;;;;;;;5011183;28;20037;-74
2022/07/12 04:27:37;;;;;;;4.32;3.88;;;;;;;;;;5010709;28;20580;-74
2022/07/12 04:30:03;;;;;;;5.28;4.40;;;;;;;;;;5010874;28;20048;-73
2022/07/12 04:32:29;;;;;;;8.95;3.92;;;;;;;;;;5010724;28;20030;-74
2022/07/12 04:34:55;;;;;;;5.70;4.13;;;;;;;;;;5012277;28;20113;-74
2022/07/12 04:37:20;;;;;;;18.30;6.35;;;;;;;;;;5010814;28;20116;-74
2022/07/12 04:39:45;;;;;;;5.35;4.18;;;;;;;;;;5012299;28;20127;-74
2022/07/12 04:42:11;;;;;;;7.47;4.63;;;;;;;;;;5011169;28;20092;-74
2022/07/12 04:44:36;;;;;;;6.03;3.60;;;;;;;;;;5012011;28;20041;-74
2022/07/12 04:47:02;;;;;;;4.82;4.35;;;;;;;;;;5010815;28;20029;-73
2022/07/12 04:49:28;;;;;;;9.88;3.58;;;;;;;;;;5012071;28;20112;-73
2022/07/12 04:51:53;;;;;;;8.02;3.95;;;;;;;;;;5012074;28;20426;-73
2022/07/12 04:54:19;;;;;;;9.05;5.30;;;;;;;;;;5011596;28;20033;-74
2022/07/12 04:56:44;;;;;;;5.57;4.32;;;;;;;;;;5012024;28;20470;-74
2022/07/12 04:59:10;;;;;;;4.70;3.70;;;;;;;;;;5011851;28;20029;-74
2022/07/12 05:01:35;;;;;;;11.05;4.70;;;;;;;;;;5010964;28;20030;-74
2022/07/12 05:04:01;;;;;;;8.02;4.38;;;;;;;;;;5010795;28;20025;-74
2022/07/12 05:06:26;;;;;;;8.52;4.28;;;;;;;;;;5010072;28;20045;-73
2022/07/12 05:08:52;;;;;;;10.32;4.22;;;;;;;;;;5011499;28;20104;-74
2022/07/12 05:11:18;;;;;;;5.22;4.13;;;;;;;;;;5003351;28;20046;-73
2022/07/12 05:13:44;;;;;;;5.65;3.83;;;;;;;;;;5010268;28;20038;-73
2022/07/12 05:16:09;;;;;;;7.70;4.82;;;;;;;;;;5009442;28;20022;-74
2022/07/12 05:18:35;;;;;;;8.05;4.60;;;;;;;;;;5010086;28;20034;-75
2022/07/12 05:21:01;;;;;;;10.95;4.22;;;;;;;;;;5009877;28;20116;-74
2022/07/12 05:23:27;;;;;;;9.60;4.50;;;;;;;;;;5007719;28;20030;-74
2022/07/12 05:25:53;;;;;;;4.72;4.03;;;;;;;;;;5011089;28;20030;-73
2022/07/12 05:28:18;;;;;;;6.13;4.35;;;;;;;;;;5010759;28;20057;-73
2022/07/12 05:30:44;;;;;;;10.57;4.57;;;;;;;;;;5026074;28;20041;-74
2022/07/12 05:33:12;;;;;;;8.18;5.30;;;;;;;;;;5005933;28;20602;-74
2022/07/12 05:35:37;;;;;;;8.77;4.50;;;;;;;;;;5023935;28;20029;-75
2022/07/12 05:38:03;;;;;;;6.65;4.38;;;;;;;;;;4997901;28;20041;-74
2022/07/12 05:40:29;;;;;;;5.78;3.70;;;;;;;;;;5007264;28;20026;-74
2022/07/12 05:42:54;;;;;;;7.22;4.05;;;;;;;;;;5005968;28;20034;-74
2022/07/12 05:45:20;;;;;;;4.90;3.78;;;;;;;;;;5005315;28;20026;-74
2022/07/12 05:47:45;;;;;;;13.93;4.95;;;;;;;;;;5006043;28;20080;-74
2022/07/12 05:50:12;;;;;;;8.25;4.13;;;;;;;;;;5008131;28;20045;-75
2022/07/12 05:55:23;;;;;;;9.00;5.10;;;;;;;;;;4994514;28;20084;-74
2022/07/12 05:57:49;;;;;;;5.88;3.92;;;;;;;;;;5009357;28;20030;-74
2022/07/12 06:00:16;;;;;;;11.57;7.63;;;;;;;;;;5008205;28;20032;-73
2022/07/12 06:02:41;;;;;;;7.15;3.97;;;;;;;;;;5008737;28;20056;-75
2022/07/12 06:05:07;;;;;;;7.72;3.83;;;;;;;;;;5008351;28;20041;-75
2022/07/12 06:07:33;;;;;;;4.22;3.80;;;;;;;;;;5009023;28;20113;-74
2022/07/12 06:09:59;;;;;;;3.97;3.58;;;;;;;;;;5009133;28;20033;-75
2022/07/12 06:12:24;;;;;;;7.60;3.58;;;;;;;;;;5006813;28;20030;-74
2022/07/12 06:14:50;;;;;;;3.92;3.35;;;;;;;;;;5007718;28;20084;-75
2022/07/12 06:17:21;;;;;;;10.73;3.90;;;;;;;;;;5010943;28;20053;-74
2022/07/12 06:19:47;;;;;;;6.28;4.10;;;;;;;;;;5023183;28;20033;-74
2022/07/12 06:22:12;;;;;;;7.70;4.07;;;;;;;;;;5007148;28;20095;-74
2022/07/12 06:24:38;;;;;;;6.13;3.80;;;;;;;;;;5024101;28;20030;-76
2022/07/12 06:27:04;;;;;;;8.13;4.15;;;;;;;;;;5003871;28;20355;-73
2022/07/12 06:29:30;;;;;;;8.13;4.57;;;;;;;;;;4999207;28;20465;-73
2022/07/12 06:31:56;;;;;;;8.55;4.28;;;;;;;;;;4997702;28;20089;-74
2022/07/12 06:34:21;;;;;;;9.13;4.72;;;;;;;;;;5006355;28;20109;-74
2022/07/12 06:36:47;;;;;;;7.13;3.85;;;;;;;;;;5002875;28;20081;-74
2022/07/12 06:39:12;;;;;;;5.22;4.03;;;;;;;;;;5003138;28;20029;-73
2022/07/12 06:41:38;;;;;;;13.30;4.22;;;;;;;;;;5002041;28;20367;-74
2022/07/12 06:44:04;;;;;;;9.25;4.05;;;;;;;;;;5006191;28;20059;-75
2022/07/12 06:46:29;;;;;;;6.93;4.28;;;;;;;;;;5001379;28;20033;-75
2022/07/12 06:48:54;;;;;;;7.30;3.95;;;;;;;;;;5008134;28;20669;-74
2022/07/12 06:51:20;;;;;;;6.78;4.10;;;;;;;;;;5006077;28;20087;-74
2022/07/12 06:53:46;;;;;;;12.10;4.60;;;;;;;;;;5009668;28;20124;-74
2022/07/12 06:56:12;;;;;;;5.15;4.05;;;;;;;;;;5006237;28;20383;-74
2022/07/12 06:58:37;;;;;;;8.00;4.15;;;;;;;;;;5001371;28;20033;-74
2022/07/12 07:01:03;;;;;;;6.28;4.50;;;;;;;;;;5015345;28;20478;-74
2022/07/12 07:03:28;;;;;;;7.45;3.75;;;;;;;;;;5004893;28;20246;-74
2022/07/12 07:05:54;;;;;;;5.13;3.60;;;;;;;;;;5004470;28;20038;-74
2022/07/12 07:08:19;;;;;;;7.15;4.20;;;;;;;;;;4998304;28;20546;-75
2022/07/12 07:10:45;;;;;;;5.90;3.78;;;;;;;;;;4997820;28;20157;-75
2022/07/12 07:13:10;;;;;;;12.35;4.47;;;;;;;;;;5001946;28;20108;-74
2022/07/12 07:15:39;;;;;;;8.48;3.83;;;;;;;;;;5002572;28;20073;-74
2022/07/12 07:18:07;;;;;;;7.78;3.95;;;;;;;;;;4999757;28;20842;-74
2022/07/12 07:20:33;;;;;;;6.32;3.95;;;;;;;;;;5002818;28;20033;-74
2022/07/12 07:22:59;;;;;;;11.48;4.40;;;;;;;;;;5017050;28;20362;-73
2022/07/12 07:25:24;;;;;;;40.75;6.53;;;;;;;;;;5004975;28;20080;-74
2022/07/12 07:27:50;;;;;;;5.50;3.17;;;;;;;;;;5001777;28;20125;-74
2022/07/12 07:33:00;;;;;;;5.18;2.97;;;;;;;;;;5004650;28;20040;-74
2022/07/12 07:35:26;;;;;;;8.23;3.75;;;;;;;;;;5021566;28;20124;-74
2022/07/12 07:37:52;;;;;;;5.93;3.28;;;;;;;;;;5006090;28;20037;-73
2022/07/12 07:40:17;;;;;;;7.75;3.45;;;;;;;;;;5002514;28;20133;-75
2022/07/12 07:42:43;;;;;;;4.45;2.90;;;;;;;;;;5008557;28;20601;-73
2022/07/12 07:45:10;;;;;;;5.57;2.97;;;;;;;;;;5010056;28;20038;-75
2022/07/12 07:47:49;;;;;;;5.53;3.15;;;;;;;;;;5018471;28;20113;-73
2022/07/12 07:50:16;;;;;;;7.82;3.10;;;;;;;;;;5017015;28;20042;-74
2022/07/12 07:52:42;;;;;;;7.63;2.88;;;;;;;;;;5018031;28;20083;-73
2022/07/12 07:55:08;;;;;;;9.27;3.53;;;;;;;;;;5025398;28;20065;-73
2022/07/12 07:57:33;;;;;;;5.32;3.42;;;;;;;;;;5008129;28;20769;-74
2022/07/12 07:59:59;;;;;;;5.35;2.90;;;;;;;;;;5007794;28;20041;-75
2022/07/12 08:02:25;;;;;;;6.22;2.95;;;;;;;;;;5007176;28;20136;-74
2022/07/12 08:04:51;;;;;;;7.30;2.60;;;;;;;;;;5009848;28;20025;-74
2022/07/12 08:07:17;;;;;;;14.38;12.90;;;;;;;;;;5006326;28;20067;-74
2022/07/12 08:09:42;;;;;;;5.70;3.00;;;;;;;;;;5007554;28;20038;-74
2022/07/12 08:12:08;;;;;;;5.22;2.67;;;;;;;;;;5008358;28;20048;-75
2022/07/12 08:14:34;;;;;;;12.07;2.95;;;;;;;;;;5005979;28;20034;-74
2022/07/12 08:16:59;;;;;;;5.93;2.60;;;;;;;;;;5009137;28;20061;-74
2022/07/12 08:19:25;;;;;;;4.13;2.58;;;;;;;;;;5021132;28;20030;-76
2022/07/12 08:21:51;;;;;;;7.25;2.63;;;;;;;;;;4983103;28;20878;-73
2022/07/12 08:24:17;;;;;;;6.53;3.20;;;;;;;;;;5004925;28;20025;-75
2022/07/12 08:26:43;;;;;;;6.47;2.70;;;;;;;;;;5001947;28;20108;-74
2022/07/12 08:29:08;;;;;;;4.38;2.28;;;;;;;;;;5004861;28;20442;-75
2022/07/12 08:31:34;;;;;;;7.50;2.63;;;;;;;;;;5020491;28;20041;-75
2022/07/12 08:34:00;;;;;;;5.25;2.25;;;;;;;;;;5005592;28;20029;-74
2022/07/12 08:36:25;;;;;;;4.68;2.65;;;;;;;;;;4996629;28;20501;-76
2022/07/12 08:38:51;;;;;;;7.88;2.28;;;;;;;;;;5003541;28;20509;-74
2022/07/12 08:41:16;;;;;;;6.75;2.10;;;;;;;;;;5009569;28;20025;-75
2022/07/12 08:43:42;;;;;;;4.95;1.98;;;;;;;;;;4992086;28;20398;-76
2022/07/12 08:46:13;;;;;;;5.45;1.98;;;;;;;;;;5003083;28;20124;-76
2022/07/12 08:48:41;;;;;;;13.77;3.05;;;;;;;;;;5000444;28;20069;-77
2022/07/12 08:51:20;;;;;;;8.32;2.22;;;;;;;;;;5021781;28;20041;-74
2022/07/12 08:53:47;;;;;;;4.65;2.45;;;;;;;;;;5007581;28;20155;-75
2022/07/12 08:56:35;;;;;;;4.47;1.85;;;;;;;;;;5007175;28;20091;-76
2022/07/12 08:59:17;;;;;;;11.60;3.53;;;;;;;;;;5007124;28;20055;-75
2022/07/12 09:01:45;;;;;;;23.63;3.50;;;;;;;;;;5005540;28;20052;-75
2022/07/12 09:04:16;;;;;;;6.80;2.63;;;;;;;;;;5004484;28;20034;-75
2022/07/12 09:06:42;;;;;;;3.33;1.80;;;;;;;;;;5018407;28;20026;-74
2022/07/12 09:09:08;;;;;;;6.45;1.77;;;;;;;;;;5006334;28;20112;-74
2022/07/12 09:11:40;;;;;;;2.05;1.73;;;;;;;;;;5002158;28;20037;-74
2022/07/12 09:14:07;;;;;;;8.57;2.85;;;;;;;;;;5008832;28;20109;-73
2022/07/12 09:16:32;;;;;;;7.10;2.15;;;;;;;;;;5004026;28;20033;-74
2022/07/12 09:19:17;;;;;;;4.85;2.13;;;;;;;;;;5020506;28;20025;-73
2022/07/12 09:21:49;;;;;;;4.38;2.03;;;;;;;;;;5021447;28;20152;-74
2022/07/12 09:24:15;;;;;;;3.75;1.80;;;;;;;;;;5002771;28;20033;-72
2022/07/12 09:26:40;;;;;;;4.60;1.77;;;;;;;;;;5007673;28;20042;-74
2022/07/12 09:29:11;;;;;;;3.67;1.40;;;;;;;;;;5006858;28;20029;-72
2022/07/12 09:36:06;;;;;;;5.78;1.40;;;;;;;;;;5005412;28;20109;-73
2022/07/12 09:37:11;;;;;;;2.83;1.60;;;;;;;;;;5004871;28;21072;-74
2022/07/12 09:39:38;;;;;;;6.78;1.48;;;;;;;;;;5003418;28;20026;-74
2022/07/12 09:42:05;;;;;;;4.18;1.63;;;;;;;;;;5022706;28;20033;-75
2022/07/12 09:44:32;;;;;;;8.82;1.70;;;;;;;;;;5006886;28;20092;-73
2022/07/12 09:47:00;;;;;;;2.53;0.88;;;;;;;;;;5005890;28;20029;-73
2022/07/12 09:49:27;;;;;;;7.55;1.60;;;;;;;;;;4999781;28;20029;-73
2022/07/12 09:51:57;;;;;;;4.80;1.90;;;;;;;;;;5008174;28;20040;-73
2022/07/12 09:54:27;;;;;;;5.55;1.98;;;;;;;;;;5006588;28;20044;-73
2022/07/12 09:56:55;;;;;;;7.28;1.63;;;;;;;;;;5002744;28;20057;-74
2022/07/12 09:59:24;;;;;;;73.70;15.80;;;;;;;;;;5007373;28;20061;-74
2022/07/12 10:01:51;;;;;;;3.35;1.85;;;;;;;;;;5003606;28;20493;-72
2022/07/12 10:04:22;;;;;;;9.13;3.15;;;;;;;;;;5001409;28;20120;-76
2022/07/12 10:06:48;;;;;;;11.55;2.42;;;;;;;;;;5008924;28;20112;-77
2022/07/12 10:09:17;;;;;;;5.75;1.60;;;;;;;;;;5023829;28;20386;-75
2022/07/12 10:11:43;;;;;;;8.20;2.20;;;;;;;;;;5003889;28;20693;-76
2022/07/12 10:14:12;;;;;;;5.97;1.98;;;;;;;;;;5005939;28;20033;-75
2022/07/12 10:16:42;;;;;;;10.55;3.47;;;;;;;;;;5013797;28;20037;-77
2022/07/12 10:19:28;;;;;;;7.43;2.65;;;;;;;;;;5007904;28;20014;-77
2022/07/12 10:21:56;;;;;;;12.73;3.78;;;;;;;;;;5006348;28;20073;-74
2022/07/12 10:24:41;;;;;;;2.78;1.90;;;;;;;;;;4971548;28;20493;-77
2022/07/12 10:27:15;;;;;;;8.15;2.83;;;;;;;;;;5021340;28;20050;-75
2022/07/12 10:29:45;;;;;;;3.70;1.73;;;;;;;;;;5002951;28;20133;-75
2022/07/12 10:32:27;;;;;;;5.03;1.90;;;;;;;;;;5003783;28;20038;-74
2022/07/12 10:35:03;;;;;;;;;;;;;;;;;;5002271;28;20041;-76
2022/07/12 10:37:29;;;;;;;9.38;3.45;;;;;;;;;;5005845;28;19917;-75
2022/07/12 10:40:11;;;;;;;5.47;2.40;;;;;;;;;;5003361;28;20089;-76
2022/07/12 10:42:37;;;;;;;3.72;1.80;;;;;;;;;;5003174;28;20144;-75
2022/07/12 10:45:14;;;;;;;8.80;2.90;;;;;;;;;;4987667;28;20410;-76
2022/07/12 10:48:01;;;;;;;6.63;2.08;;;;;;;;;;4989858;28;20045;-76
2022/07/12 10:51:00;;;;;;;14.05;4.22;;;;;;;;;;5004453;28;20548;-75
2022/07/12 10:53:33;;;;;;;5.38;2.63;;;;;;;;;;5003958;28;20026;-77
2022/07/12 10:56:19;;;;;;;5.85;1.90;;;;;;;;;;5020744;28;20029;-76
2022/07/12 10:58:54;;;;;;;3.17;2.30;;;;;;;;;;5002540;28;20026;-75
2022/07/12 11:01:27;;;;;;;6.00;2.08;;;;;;;;;;5005978;28;20378;-75
2022/07/12 11:04:06;;;;;;;6.95;2.05;;;;;;;;;;5003562;28;20026;-76
2022/07/12 11:06:43;;;;;;;4.13;1.85;;;;;;;;;;4999852;28;20061;-77
2022/07/12 11:09:10;;;;;;;3.88;1.85;;;;;;;;;;5006168;28;20037;-76
2022/07/12 11:11:51;;;;;;;3.90;1.95;;;;;;;;;;5007136;28;20029;-75
2022/07/12 11:14:34;;;;;;;7.10;3.15;;;;;;;;;;5000003;28;20446;-76
2022/07/12 11:17:07;;;;;;;6.50;1.90;;;;;;;;;;5005305;28;20026;-78
2022/07/12 11:19:34;;;;;;;3.13;2.03;;;;;;;;;;5003687;28;20026;-76
2022/07/12 11:22:00;;;;;;;8.70;2.05;;;;;;;;;;5005658;28;20033;-76
2022/07/12 11:24:31;;;;;;;5.82;1.60;;;;;;;;;;5004329;28;20351;-76
2022/07/12 11:27:02;;;;;;;7.95;1.95;;;;;;;;;;4911566;28;2958957;-76
2022/07/12 11:29:28;;;;;;;4.63;1.95;;;;;;;;;;5005640;28;20046;-76
2022/07/12 11:32:05;;;;;;;5.55;2.80;;;;;;;;;;5006749;28;20068;-75
2022/07/12 11:34:34;;;;;;;5.18;1.90;;;;;;;;;;5005384;28;20545;-77
2022/07/12 11:37:03;;;;;;;4.82;1.95;;;;;;;;;;5008659;28;20030;-76
2022/07/12 11:39:37;;;;;;;6.63;2.63;;;;;;;;;;5008267;28;20073;-76
2022/07/12 11:42:04;;;;;;;4.45;1.80;;;;;;;;;;5024036;28;20064;-74
2022/07/12 11:44:51;;;;;;;3.85;1.85;;;;;;;;;;5004770;28;20555;-75
2022/07/12 11:47:19;;;;;;;4.80;1.90;;;;;;;;;;5001892;28;20659;-75
2022/07/12 11:49:46;;;;;;;5.38;1.20;;;;;;;;;;5003021;28;20980;-76
2022/07/12 11:52:19;;;;;;;5.07;1.60;;;;;;;;;;5006537;28;20066;-75
2022/07/12 11:54:45;;;;;;;2.47;1.20;;;;;;;;;;5006950;28;20053;-76
2022/07/12 11:57:12;;;;;;;4.78;1.48;;;;;;;;;;5006500;28;20032;-74
2022/07/12 11:59:38;;;;;;;6.15;1.52;;;;;;;;;;5003049;28;20025;-76
2022/07/12 12:02:10;;;;;;;7.68;1.90;;;;;;;;;;5016642;28;20116;-75
2022/07/12 12:04:46;;;;;;;3.42;1.48;;;;;;;;;;5007253;28;20033;-75
2022/07/12 12:07:16;;;;;;;2.60;1.48;;;;;;;;;;5008886;28;20045;-75
2022/07/12 12:10:10;;;;;;;3.38;1.77;;;;;;;;;;5003650;28;20117;-76
2022/07/12 12:12:37;;;;;;;3.35;1.40;;;;;;;;;;5003278;28;20764;-75
2022/07/12 12:15:17;;;;;;;6.93;1.70;;;;;;;;;;4996932;28;20028;-77
2022/07/12 12:18:04;;;;;;;3.45;1.60;;;;;;;;;;4987329;28;20038;-74
2022/07/12 12:20:32;;;;;;;5.43;1.45;;;;;;;;;;5008775;28;20030;-76
2022/07/12 12:23:02;;;;;;;2.70;1.40;;;;;;;;;;5007627;28;20076;-77
2022/07/12 12:25:30;;;;;;;3.90;1.52;;;;;;;;;;5022280;28;20519;-75
2022/07/12 12:28:00;;;;;;;5.00;1.70;;;;;;;;;;5012209;28;20066;-76
2022/07/12 12:30:27;;;;;;;7.15;1.75;;;;;;;;;;5007170;28;20116;-75
2022/07/12 12:32:55;;;;;;;4.97;2.17;;;;;;;;;;5009002;28;20113;-75
2022/07/12 12:35:37;;;;;;;6.45;1.58;;;;;;;;;;5009091;28;20021;-77
2022/07/12 12:38:14;;;;;;;6.85;1.67;;;;;;;;;;5022371;28;20033;-75
2022/07/12 12:40:43;;;;;;;2.17;1.20;;;;;;;;;;5007328;28;20026;-75
2022/07/12 12:43:13;;;;;;;8.15;7.57;;;;;;;;;;5018237;28;20072;-73
2022/07/12 12:46:08;;;;;;;3.30;1.30;;;;;;;;;;5028020;28;20057;-75
2022/07/12 12:48:35;;;;;;;4.75;1.73;;;;;;;;;;5005359;28;20144;-74
2022/07/12 12:51:09;;;;;;;8.65;1.38;;;;;;;;;;5041633;28;20025;-76
2022/07/12 12:53:39;;;;;;;2.17;1.13;;;;;;;;;;5021896;28;20030;-76
2022/07/12 12:56:08;;;;;;;8.02;1.20;;;;;;;;;;5017118;28;20072;-74
2022/07/12 12:58:34;;;;;;;2.35;1.25;;;;;;;;;;5008959;28;20071;-78
2022/07/12 13:00:59;;;;;;;15.02;1.77;;;;;;;;;;5011276;28;20450;-75
2022/07/12 13:03:25;;;;;;;2.97;1.30;;;;;;;;;;5009950;28;20033;-75
2022/07/12 13:05:51;;;;;;;1.35;1.25;;;;;;;;;;5021759;28;20025;-76
2022/07/12 13:08:17;;;;;;;3.33;1.42;;;;;;;;;;5010194;28;20516;-75
2022/07/12 13:10:45;;;;;;;4.13;1.30;;;;;;;;;;5008564;28;20351;-75
2022/07/12 13:13:12;;;;;;;4.50;1.95;;;;;;;;;;5008387;28;20493;-76
2022/07/12 13:15:38;;;;;;;10.70;1.95;;;;;;;;;;5007521;28;20421;-76
2022/07/12 13:18:05;;;;;;;3.50;1.30;;;;;;;;;;5008490;28;20548;-75
2022/07/12 13:20:31;;;;;;;8.23;2.20;;;;;;;;;;5006373;28;20112;-75
2022/07/12 13:23:12;;;;;;;4.93;1.52;;;;;;;;;;5007320;28;20105;-75
2022/07/12 13:25:38;;;;;;;4.55;1.13;;;;;;;;;;5005348;28;20088;-76
2022/07/12 13:28:04;;;;;;;5.28;1.23;;;;;;;;;;5006552;28;20069;-76
2022/07/12 13:30:37;;;;;;;7.95;1.50;;;;;;;;;;5024456;28;20045;-77
2022/07/12 13:33:03;;;;;;;6.68;2.25;;;;;;;;;;5009131;28;20360;-75
2022/07/12 13:35:29;;;;;;;2.63;1.30;;;;;;;;;;5011406;28;20485;-75
2022/07/12 13:37:58;;;;;;;3.00;1.15;;;;;;;;;;5008900;28;20111;-77
2022/07/12 13:40:24;;;;;;;3.88;1.10;;;;;;;;;;5006719;28;20026;-75
2022/07/12 13:42:58;;;;;;;2.67;0.98;;;;;;;;;;5008471;28;20033;-75
2022/07/12 13:45:25;;;;;;;1.65;0.85;;;;;;;;;;5012061;28;20529;-75
2022/07/12 13:47:52;;;;;;;5.82;0.73;;;;;;;;;;5029848;28;20064;-75
2022/07/12 13:50:19;;;;;;;2.75;1.05;;;;;;;;;;5013074;28;20474;-75
2022/07/12 13:52:46;;;;;;;4.13;0.90;;;;;;;;;;5010090;28;20042;-76
2022/07/12 13:55:14;;;;;;;1.33;1.17;;;;;;;;;;5009590;28;20030;-74
2022/07/12 13:57:40;;;;;;;3.17;0.90;;;;;;;;;;5024451;28;20026;-76
2022/07/12 14:00:11;;;;;;;4.13;0.75;;;;;;;;;;4988910;28;20044;-75
2022/07/12 14:02:42;;;;;;;1.70;0.75;;;;;;;;;;5023166;28;20045;-74
2022/07/12 14:05:12;;;;;;;1.05;0.88;;;;;;;;;;5007287;28;20036;-76
2022/07/12 14:07:39;;;;;;;1.07;0.73;;;;;;;;;;5007932;28;20026;-76
2022/07/12 14:10:06;;;;;;;1.70;0.98;;;;;;;;;;5009440;28;20096;-76
2022/07/12 14:12:32;;;;;;;2.00;0.73;;;;;;;;;;5006589;28;20534;-76
2022/07/12 14:17:38;;;;;;;0.88;0.50;;;;;;;;;;5005574;28;20040;-75
2022/07/12 14:20:09;;;;;;;1.27;0.80;;;;;;;;;;5006678;28;20033;-76
2022/07/12 14:22:35;;;;;;;3.17;1.00;;;;;;;;;;5021679;28;20156;-77
2022/07/12 14:25:03;;;;;;;4.82;1.13;;;;;;;;;;5005020;28;20026;-74
2022/07/12 14:27:30;;;;;;;5.18;1.20;;;;;;;;;;5005689;28;20530;-76
2022/07/12 14:29:55;;;;;;;2.22;0.73;;;;;;;;;;5006513;28;20041;-75
2022/07/12 14:32:21;;;;;;;2.60;0.85;;;;;;;;;;5009050;28;20041;-76
2022/07/12 14:34:46;;;;;;;3.72;1.30;;;;;;;;;;5009512;28;20017;-76
2022/07/12 14:37:12;;;;;;;2.83;1.15;;;;;;;;;;5010584;28;20033;-76
2022/07/12 14:39:38;;;;;;;3.03;0.90;;;;;;;;;;5009635;28;20048;-76
2022/07/12 14:42:04;;;;;;;4.55;0.80;;;;;;;;;;5009753;28;20032;-75
2022/07/12 14:44:30;;;;;;;1.55;1.05;;;;;;;;;;5007290;28;20076;-77
2022/07/12 14:46:58;;;;;;;1.88;1.15;;;;;;;;;;5007936;28;20042;-76
2022/07/12 14:49:24;;;;;;;2.05;0.95;;;;;;;;;;5004146;28;20169;-77
2022/07/12 14:51:50;;;;;;;2.97;0.73;;;;;;;;;;5010401;28;20509;-77
2022/07/12 14:54:17;;;;;;;2.92;1.20;;;;;;;;;;5007904;28;20038;-77
2022/07/12 14:56:42;;;;;;;4.63;0.88;;;;;;;;;;5008982;28;20022;-76
2022/07/12 14:59:08;;;;;;;0.98;0.63;;;;;;;;;;5009471;28;20390;-76
2022/07/12 15:01:37;;;;;;;7.68;2.10;;;;;;;;;;5010679;28;20030;-77